Logan, Illinois
Current Conditions -  °F | °C
As of 6:54 AM on Thursday 18 Dec 2014 (Local Time) from KMWA Reporting Station
Overcast Overcast  
Wind Chill: 32°   Ceiling: 700
Heat Index: 32°   Visibility: 7mi
Dew Point: 30°   Wind: 3mph
Humidity: 93%   Direction: 70°ENE
Pressure: 30.29"   Gusts: NA
Location:  37.96°N, 88.84°W
Report Text: KMWA 181254Z 07003KT 7SM BKN007 OVC041 00/M01 A3029
Loading
Personal Weather Stations






























Interactive Weather Map New forecast layout! Learn more

10-Day Weather Forecast

Advertisements
Track Severe Weather on mobile